Archival Weather

Fukuoka

Fukuoka, Japan (RJFF)

Report from: Monday, August 15, 2022 11:00 PM JST
Current time: Sunday, February 25, 2024 12:28 AM JST

Current weather – Weather history – Daily summaries
Weather forecast

Temperature28.0°C (82.4°F)
Heat index33.5°C (92.3°F)
Dew point26.0°C (78.8°F)
Winds 10 kts (5.1 m/s, 11.5 mph) South-Southeast (150°)
Visibility6.2 mi. (10 km)
Clouds Few clouds 3,600 ft. (1,097 m)
Scattered clouds 4,000 ft. (1,219 m)
Ceiling: Broken clouds 4,400 ft. (1,341 m)
Altimeter29.71 in.Hg (1006 mB)
Relative humidity89 %
Density altitude2,188 ft. (667 m)
Remarks Fully automated report
No significant changes expected in the next two hours
Flight conditions Visual Meteorological Conditions
Raw dataRJFF 151400Z AUTO 15010KT 9999 FEW036 SCT040 BKN044 //////TCU 28/26 Q1006 NOSIG
An error has occurred. This application may no longer respond until reloaded. Reload 🗙